ADDS METAR Data INFO
IDs: Format: Raw Decoded Include TAF

Data at: 2034 UTC 20 Jul 2018

METAR for:KCRP (Corpus Christi Intl, TX, US)
Text:KCRP 201951Z 15014KT 10SM FEW031 FEW250 34/27 A2992 RMK AO2 SLP132 T03390267 $
Temperature: 33.9°C ( 93°F)
Dewpoint: 26.7°C ( 80°F) [RH = 66%]
Pressure (altimeter):29.92 inches Hg (1013.3 mb) [Sea level pressure: 1013.2 mb]
Winds:from the SSE (150 degrees) at 16 MPH (14 knots; 7.2 m/s)
Visibility:10 or more sm (16+ km)
Ceiling:at least 12,000 feet AGL
Clouds: few clouds at 3100 feet AGL, few clouds at 25000 feet AGL
QC Flag:SOME DATA ABOVE MAY BE INACCURATE!!!"$" is an indication the sensor requires maintenance.